Verbena, Alabama
Current Conditions -  °F | °C
As of 10:55 AM on Saturday 22 Nov 2014 (Local Time) from K1A9 Reporting Station
Clear Clear  
Wind Chill: 62°   Ceiling: Unl
Heat Index: 62°   Visibility: 10mi
Dew Point: 46°   Wind: 12mph
Humidity: 55%   Direction: 90°E
Pressure: 30.32"   Gusts: 17mph
Location:  32.75°N, 86.51°W
Report Text: K1A9 221655Z AUTO 09010G15KT 10SM CLR 17/08 A3032 RMK AO2 T01650075
Loading
Personal Weather Stations






























Interactive Weather Map New forecast layout! Learn more

10-Day Weather Forecast

Advertisements
Track Severe Weather on mobile